sensor_id;sensor_type;location;lat;lon;timestamp;temperature;humidity
67586;SHT31;55785;47.946;20.540;2024-03-25T00:00:53;3.93;75.59
67586;SHT31;55785;47.946;20.540;2024-03-25T00:03:18;3.84;76.06
67586;SHT31;55785;47.946;20.540;2024-03-25T00:05:43;3.83;75.97
67586;SHT31;55785;47.946;20.540;2024-03-25T00:08:09;3.80;76.13
67586;SHT31;55785;47.946;20.540;2024-03-25T00:10:34;3.81;76.22
67586;SHT31;55785;47.946;20.540;2024-03-25T00:13:00;3.81;76.16
67586;SHT31;55785;47.946;20.540;2024-03-25T00:15:25;3.84;75.97
67586;SHT31;55785;47.946;20.540;2024-03-25T00:17:50;3.83;75.99
67586;SHT31;55785;47.946;20.540;2024-03-25T00:20:16;3.76;76.13
67586;SHT31;55785;47.946;20.540;2024-03-25T00:22:41;3.71;76.36
67586;SHT31;55785;47.946;20.540;2024-03-25T00:25:07;3.78;76.27
67586;SHT31;55785;47.946;20.540;2024-03-25T00:27:33;3.81;76.16
67586;SHT31;55785;47.946;20.540;2024-03-25T00:29:58;3.81;76.07
67586;SHT31;55785;47.946;20.540;2024-03-25T00:32:23;3.81;76.28
67586;SHT31;55785;47.946;20.540;2024-03-25T00:34:49;3.77;76.30
67586;SHT31;55785;47.946;20.540;2024-03-25T00:37:14;3.77;76.25
67586;SHT31;55785;47.946;20.540;2024-03-25T00:39:39;3.74;76.44
67586;SHT31;55785;47.946;20.540;2024-03-25T00:42:05;3.77;76.44
67586;SHT31;55785;47.946;20.540;2024-03-25T00:44:30;3.80;76.56
67586;SHT31;55785;47.946;20.540;2024-03-25T00:46:56;3.87;76.39
67586;SHT31;55785;47.946;20.540;2024-03-25T00:49:21;3.91;76.24
67586;SHT31;55785;47.946;20.540;2024-03-25T00:51:47;4.01;75.86
67586;SHT31;55785;47.946;20.540;2024-03-25T00:54:12;4.01;75.69
67586;SHT31;55785;47.946;20.540;2024-03-25T00:56:37;4.01;75.52
67586;SHT31;55785;47.946;20.540;2024-03-25T00:59:03;3.98;75.70
67586;SHT31;55785;47.946;20.540;2024-03-25T01:01:29;3.91;75.97
67586;SHT31;55785;47.946;20.540;2024-03-25T01:03:54;3.83;76.02
67586;SHT31;55785;47.946;20.540;2024-03-25T01:06:20;3.71;75.95
67586;SHT31;55785;47.946;20.540;2024-03-25T01:08:45;3.63;76.36
67586;SHT31;55785;47.946;20.540;2024-03-25T01:11:11;3.56;76.91
67586;SHT31;55785;47.946;20.540;2024-03-25T01:13:36;3.42;77.14
67586;SHT31;55785;47.946;20.540;2024-03-25T01:16:01;3.29;77.40
67586;SHT31;55785;47.946;20.540;2024-03-25T01:18:27;3.08;78.94
67586;SHT31;55785;47.946;20.540;2024-03-25T01:20:52;3.12;79.12
67586;SHT31;55785;47.946;20.540;2024-03-25T01:23:17;3.08;79.32
67586;SHT31;55785;47.946;20.540;2024-03-25T01:25:43;3.09;79.60
67586;SHT31;55785;47.946;20.540;2024-03-25T01:28:08;3.13;79.95
67586;SHT31;55785;47.946;20.540;2024-03-25T01:30:33;3.22;80.06
67586;SHT31;55785;47.946;20.540;2024-03-25T01:32:59;3.28;80.05
67586;SHT31;55785;47.946;20.540;2024-03-25T01:35:24;3.33;80.05
67586;SHT31;55785;47.946;20.540;2024-03-25T01:37:49;3.35;80.10
67586;SHT31;55785;47.946;20.540;2024-03-25T01:40:15;3.42;79.89
67586;SHT31;55785;47.946;20.540;2024-03-25T01:42:40;3.43;79.73
67586;SHT31;55785;47.946;20.540;2024-03-25T01:45:06;3.44;79.84
67586;SHT31;55785;47.946;20.540;2024-03-25T01:47:32;3.53;79.54
67586;SHT31;55785;47.946;20.540;2024-03-25T01:49:57;3.59;79.34
67586;SHT31;55785;47.946;20.540;2024-03-25T01:52:23;3.60;79.23
67586;SHT31;55785;47.946;20.540;2024-03-25T01:54:49;3.56;79.32
67586;SHT31;55785;47.946;20.540;2024-03-25T01:57:14;3.59;79.34
67586;SHT31;55785;47.946;20.540;2024-03-25T01:59:39;3.60;79.31
67586;SHT31;55785;47.946;20.540;2024-03-25T02:02:05;3.62;79.29
67586;SHT31;55785;47.946;20.540;2024-03-25T02:04:31;3.64;79.41
67586;SHT31;55785;47.946;20.540;2024-03-25T02:06:56;3.70;79.39
67586;SHT31;55785;47.946;20.540;2024-03-25T02:09:22;3.67;79.24
67586;SHT31;55785;47.946;20.540;2024-03-25T02:11:48;3.62;79.34
67586;SHT31;55785;47.946;20.540;2024-03-25T02:14:14;3.62;79.37
67586;SHT31;55785;47.946;20.540;2024-03-25T02:16:39;3.56;79.57
67586;SHT31;55785;47.946;20.540;2024-03-25T02:19:05;3.52;79.82
67586;SHT31;55785;47.946;20.540;2024-03-25T02:21:30;3.44;80.19
67586;SHT31;55785;47.946;20.540;2024-03-25T02:23:56;3.47;80.70
67586;SHT31;55785;47.946;20.540;2024-03-25T02:26:24;3.55;80.72
67586;SHT31;55785;47.946;20.540;2024-03-25T02:28:49;3.59;80.63
67586;SHT31;55785;47.946;20.540;2024-03-25T02:31:15;3.59;80.87
67586;SHT31;55785;47.946;20.540;2024-03-25T02:33:40;3.55;80.93
67586;SHT31;55785;47.946;20.540;2024-03-25T02:36:06;3.52;81.23
67586;SHT31;55785;47.946;20.540;2024-03-25T02:38:31;3.46;81.46
67586;SHT31;55785;47.946;20.540;2024-03-25T02:40:56;3.55;81.39
67586;SHT31;55785;47.946;20.540;2024-03-25T02:43:22;3.56;81.22
67586;SHT31;55785;47.946;20.540;2024-03-25T02:45:47;3.55;81.44
67586;SHT31;55785;47.946;20.540;2024-03-25T02:48:13;3.55;81.59
67586;SHT31;55785;47.946;20.540;2024-03-25T02:50:38;3.55;81.88
67586;SHT31;55785;47.946;20.540;2024-03-25T02:53:03;3.47;81.89
67586;SHT31;55785;47.946;20.540;2024-03-25T02:55:29;3.49;81.82
67586;SHT31;55785;47.946;20.540;2024-03-25T02:57:54;3.49;81.89
67586;SHT31;55785;47.946;20.540;2024-03-25T03:00:19;3.43;81.98
67586;SHT31;55785;47.946;20.540;2024-03-25T03:02:45;3.44;82.02
67586;SHT31;55785;47.946;20.540;2024-03-25T03:05:10;3.49;81.93
67586;SHT31;55785;47.946;20.540;2024-03-25T03:07:35;3.47;81.99
67586;SHT31;55785;47.946;20.540;2024-03-25T03:10:01;3.50;81.90
67586;SHT31;55785;47.946;20.540;2024-03-25T03:12:26;3.50;82.08
67586;SHT31;55785;47.946;20.540;2024-03-25T03:14:52;3.52;82.18
67586;SHT31;55785;47.946;20.540;2024-03-25T03:17:17;3.49;82.31
67586;SHT31;55785;47.946;20.540;2024-03-25T03:19:42;3.43;82.54
67586;SHT31;55785;47.946;20.540;2024-03-25T03:22:08;3.39;82.56
67586;SHT31;55785;47.946;20.540;2024-03-25T03:24:33;3.38;82.73
67586;SHT31;55785;47.946;20.540;2024-03-25T03:26:59;3.33;82.85
67586;SHT31;55785;47.946;20.540;2024-03-25T03:29:24;3.39;82.79
67586;SHT31;55785;47.946;20.540;2024-03-25T03:31:49;3.39;82.81
67586;SHT31;55785;47.946;20.540;2024-03-25T03:34:15;3.40;82.66
67586;SHT31;55785;47.946;20.540;2024-03-25T03:36:40;3.46;82.52
67586;SHT31;55785;47.946;20.540;2024-03-25T03:39:06;3.49;82.44
67586;SHT31;55785;47.946;20.540;2024-03-25T03:41:31;3.46;82.43
67586;SHT31;55785;47.946;20.540;2024-03-25T03:43:56;3.46;82.21
67586;SHT31;55785;47.946;20.540;2024-03-25T03:46:22;3.43;82.21
67586;SHT31;55785;47.946;20.540;2024-03-25T03:48:47;3.43;81.97
67586;SHT31;55785;47.946;20.540;2024-03-25T03:51:12;3.43;81.98
67586;SHT31;55785;47.946;20.540;2024-03-25T03:53:38;3.39;82.04
67586;SHT31;55785;47.946;20.540;2024-03-25T03:56:04;3.32;82.19
67586;SHT31;55785;47.946;20.540;2024-03-25T03:58:30;3.36;82.05
67586;SHT31;55785;47.946;20.540;2024-03-25T04:00:55;3.30;82.00
67586;SHT31;55785;47.946;20.540;2024-03-25T04:03:21;3.35;81.87
67586;SHT31;55785;47.946;20.540;2024-03-25T04:05:46;3.33;81.69
67586;SHT31;55785;47.946;20.540;2024-03-25T04:08:12;3.26;81.84
67586;SHT31;55785;47.946;20.540;2024-03-25T04:10:37;3.23;82.51
67586;SHT31;55785;47.946;20.540;2024-03-25T04:13:04;3.28;82.54
67586;SHT31;55785;47.946;20.540;2024-03-25T04:15:32;3.36;82.42
67586;SHT31;55785;47.946;20.540;2024-03-25T04:17:58;3.30;82.46
67586;SHT31;55785;47.946;20.540;2024-03-25T04:20:23;3.30;82.55
67586;SHT31;55785;47.946;20.540;2024-03-25T04:22:48;3.28;82.58
67586;SHT31;55785;47.946;20.540;2024-03-25T04:25:14;3.19;82.86
67586;SHT31;55785;47.946;20.540;2024-03-25T04:27:40;3.18;83.00
67586;SHT31;55785;47.946;20.540;2024-03-25T04:30:07;3.13;83.24
67586;SHT31;55785;47.946;20.540;2024-03-25T04:32:32;3.19;83.19
67586;SHT31;55785;47.946;20.540;2024-03-25T04:34:58;3.19;83.20
67586;SHT31;55785;47.946;20.540;2024-03-25T04:37:24;3.19;83.25
67586;SHT31;55785;47.946;20.540;2024-03-25T04:39:49;3.15;83.12
67586;SHT31;55785;47.946;20.540;2024-03-25T04:42:14;3.19;83.11
67586;SHT31;55785;47.946;20.540;2024-03-25T04:44:40;3.20;82.79
67586;SHT31;55785;47.946;20.540;2024-03-25T04:47:05;3.22;82.83
67586;SHT31;55785;47.946;20.540;2024-03-25T04:49:31;3.19;82.65
67586;SHT31;55785;47.946;20.540;2024-03-25T04:51:56;3.25;82.59
67586;SHT31;55785;47.946;20.540;2024-03-25T04:54:21;3.26;82.42
67586;SHT31;55785;47.946;20.540;2024-03-25T04:56:47;3.32;82.11
67586;SHT31;55785;47.946;20.540;2024-03-25T04:59:12;3.39;81.81
67586;SHT31;55785;47.946;20.540;2024-03-25T05:01:37;3.43;81.59
67586;SHT31;55785;47.946;20.540;2024-03-25T05:04:03;3.55;81.24
67586;SHT31;55785;47.946;20.540;2024-03-25T05:06:28;3.53;81.22
67586;SHT31;55785;47.946;20.540;2024-03-25T05:08:53;3.53;81.17
67586;SHT31;55785;47.946;20.540;2024-03-25T05:11:19;3.57;80.93
67586;SHT31;55785;47.946;20.540;2024-03-25T05:13:44;3.66;80.78
67586;SHT31;55785;47.946;20.540;2024-03-25T05:16:10;3.71;80.43
67586;SHT31;55785;47.946;20.540;2024-03-25T05:18:35;3.76;80.47
67586;SHT31;55785;47.946;20.540;2024-03-25T05:21:01;3.83;80.24
67586;SHT31;55785;47.946;20.540;2024-03-25T05:23:26;3.87;80.12
67586;SHT31;55785;47.946;20.540;2024-03-25T05:25:51;3.86;80.08
67586;SHT31;55785;47.946;20.540;2024-03-25T05:28:17;3.88;80.45
67586;SHT31;55785;47.946;20.540;2024-03-25T05:30:42;3.97;80.51
67586;SHT31;55785;47.946;20.540;2024-03-25T05:33:07;3.98;80.58
67586;SHT31;55785;47.946;20.540;2024-03-25T05:35:33;3.97;80.61
67586;SHT31;55785;47.946;20.540;2024-03-25T05:37:58;3.99;80.71
67586;SHT31;55785;47.946;20.540;2024-03-25T05:40:23;4.01;80.63
67586;SHT31;55785;47.946;20.540;2024-03-25T05:42:49;4.04;80.79
67586;SHT31;55785;47.946;20.540;2024-03-25T05:45:14;4.05;80.81
67586;SHT31;55785;47.946;20.540;2024-03-25T05:47:39;4.08;80.83
67586;SHT31;55785;47.946;20.540;2024-03-25T05:50:05;4.12;80.52
67586;SHT31;55785;47.946;20.540;2024-03-25T05:52:31;4.15;80.39
67586;SHT31;55785;47.946;20.540;2024-03-25T05:54:57;4.19;80.03
67586;SHT31;55785;47.946;20.540;2024-03-25T05:57:22;4.25;79.94
67586;SHT31;55785;47.946;20.540;2024-03-25T05:59:47;4.24;80.17
67586;SHT31;55785;47.946;20.540;2024-03-25T06:02:13;4.34;79.93
67586;SHT31;55785;47.946;20.540;2024-03-25T06:04:38;4.50;80.03
67586;SHT31;55785;47.946;20.540;2024-03-25T06:07:03;4.65;79.47
67586;SHT31;55785;47.946;20.540;2024-03-25T06:09:29;4.60;78.52
67586;SHT31;55785;47.946;20.540;2024-03-25T06:11:54;4.66;78.42
67586;SHT31;55785;47.946;20.540;2024-03-25T06:14:19;4.84;78.65
67586;SHT31;55785;47.946;20.540;2024-03-25T06:16:45;4.90;77.66
67586;SHT31;55785;47.946;20.540;2024-03-25T06:19:10;5.05;77.69
67586;SHT31;55785;47.946;20.540;2024-03-25T06:21:35;5.13;76.32
67586;SHT31;55785;47.946;20.540;2024-03-25T06:24:01;5.30;76.86
67586;SHT31;55785;47.946;20.540;2024-03-25T06:26:26;5.39;75.99
67586;SHT31;55785;47.946;20.540;2024-03-25T06:28:51;5.35;75.21
67586;SHT31;55785;47.946;20.540;2024-03-25T06:31:17;5.56;76.05
67586;SHT31;55785;47.946;20.540;2024-03-25T06:33:42;5.76;75.30
67586;SHT31;55785;47.946;20.540;2024-03-25T06:36:07;5.90;74.33
67586;SHT31;55785;47.946;20.540;2024-03-25T06:38:33;6.09;74.29
67586;SHT31;55785;47.946;20.540;2024-03-25T06:40:58;6.14;74.02
67586;SHT31;55785;47.946;20.540;2024-03-25T06:43:23;6.21;72.84
67586;SHT31;55785;47.946;20.540;2024-03-25T06:45:49;6.09;72.47
67586;SHT31;55785;47.946;20.540;2024-03-25T06:48:14;6.09;72.80
67586;SHT31;55785;47.946;20.540;2024-03-25T06:50:40;6.21;72.31
67586;SHT31;55785;47.946;20.540;2024-03-25T06:53:05;6.24;71.88
67586;SHT31;55785;47.946;20.540;2024-03-25T06:55:30;6.27;72.45
67586;SHT31;55785;47.946;20.540;2024-03-25T06:57:56;6.41;72.25
67586;SHT31;55785;47.946;20.540;2024-03-25T07:00:21;6.52;72.54
67586;SHT31;55785;47.946;20.540;2024-03-25T07:02:46;6.51;72.03
67586;SHT31;55785;47.946;20.540;2024-03-25T07:05:12;6.49;71.68
67586;SHT31;55785;47.946;20.540;2024-03-25T07:07:37;6.32;72.07
67586;SHT31;55785;47.946;20.540;2024-03-25T07:10:03;6.24;72.27
67586;SHT31;55785;47.946;20.540;2024-03-25T07:12:28;6.37;72.68
67586;SHT31;55785;47.946;20.540;2024-03-25T07:14:54;6.35;72.07
67586;SHT31;55785;47.946;20.540;2024-03-25T07:17:19;6.44;72.23
67586;SHT31;55785;47.946;20.540;2024-03-25T07:19:44;6.44;72.05
67586;SHT31;55785;47.946;20.540;2024-03-25T07:22:10;6.62;72.43
67586;SHT31;55785;47.946;20.540;2024-03-25T07:24:35;6.80;72.19
67586;SHT31;55785;47.946;20.540;2024-03-25T07:27:00;6.83;71.19
67586;SHT31;55785;47.946;20.540;2024-03-25T07:29:26;6.65;71.01
67586;SHT31;55785;47.946;20.540;2024-03-25T07:31:51;6.56;71.90
67586;SHT31;55785;47.946;20.540;2024-03-25T07:34:17;6.45;71.92
67586;SHT31;55785;47.946;20.540;2024-03-25T07:36:42;6.42;72.18
67586;SHT31;55785;47.946;20.540;2024-03-25T07:39:07;6.37;72.10
67586;SHT31;55785;47.946;20.540;2024-03-25T07:41:33;6.42;72.21
67586;SHT31;55785;47.946;20.540;2024-03-25T07:43:58;6.48;72.28
67586;SHT31;55785;47.946;20.540;2024-03-25T07:46:23;6.62;71.56
67586;SHT31;55785;47.946;20.540;2024-03-25T07:48:49;6.79;71.71
67586;SHT31;55785;47.946;20.540;2024-03-25T07:51:14;7.03;72.25
67586;SHT31;55785;47.946;20.540;2024-03-25T07:53:39;7.26;70.89
67586;SHT31;55785;47.946;20.540;2024-03-25T07:56:05;7.48;69.99
67586;SHT31;55785;47.946;20.540;2024-03-25T07:58:30;7.64;68.83
67586;SHT31;55785;47.946;20.540;2024-03-25T08:00:56;7.77;69.45
67586;SHT31;55785;47.946;20.540;2024-03-25T08:03:22;7.95;68.26
67586;SHT31;55785;47.946;20.540;2024-03-25T08:05:47;8.05;68.21
67586;SHT31;55785;47.946;20.540;2024-03-25T08:08:12;8.16;66.89
67586;SHT31;55785;47.946;20.540;2024-03-25T08:10:38;7.98;66.72
67586;SHT31;55785;47.946;20.540;2024-03-25T08:13:03;7.81;67.17
67586;SHT31;55785;47.946;20.540;2024-03-25T08:15:29;7.79;68.13
67586;SHT31;55785;47.946;20.540;2024-03-25T08:17:54;7.72;67.85
67586;SHT31;55785;47.946;20.540;2024-03-25T08:20:19;7.55;67.78
67586;SHT31;55785;47.946;20.540;2024-03-25T08:22:45;7.54;68.64
67586;SHT31;55785;47.946;20.540;2024-03-25T08:25:10;7.86;67.92
67586;SHT31;55785;47.946;20.540;2024-03-25T08:27:35;8.22;68.61
67586;SHT31;55785;47.946;20.540;2024-03-25T08:30:01;8.57;67.99
67586;SHT31;55785;47.946;20.540;2024-03-25T08:32:26;8.88;66.45
67586;SHT31;55785;47.946;20.540;2024-03-25T08:34:51;9.02;66.45
67586;SHT31;55785;47.946;20.540;2024-03-25T08:37:17;9.06;64.69
67586;SHT31;55785;47.946;20.540;2024-03-25T08:39:42;9.02;63.89
67586;SHT31;55785;47.946;20.540;2024-03-25T08:42:08;8.93;62.11
67586;SHT31;55785;47.946;20.540;2024-03-25T08:44:33;8.99;62.83
67586;SHT31;55785;47.946;20.540;2024-03-25T08:46:58;9.05;62.74
67586;SHT31;55785;47.946;20.540;2024-03-25T08:49:24;9.30;62.39
67586;SHT31;55785;47.946;20.540;2024-03-25T08:51:49;9.46;61.89
67586;SHT31;55785;47.946;20.540;2024-03-25T08:54:14;9.39;61.38
67586;SHT31;55785;47.946;20.540;2024-03-25T08:56:40;9.22;61.91
67586;SHT31;55785;47.946;20.540;2024-03-25T08:59:05;9.36;62.59
67586;SHT31;55785;47.946;20.540;2024-03-25T09:01:30;9.32;61.34
67586;SHT31;55785;47.946;20.540;2024-03-25T09:03:56;9.16;60.83
67586;SHT31;55785;47.946;20.540;2024-03-25T09:06:21;9.08;61.45
67586;SHT31;55785;47.946;20.540;2024-03-25T09:08:47;9.06;62.27
67586;SHT31;55785;47.946;20.540;2024-03-25T09:11:12;9.42;63.15
67586;SHT31;55785;47.946;20.540;2024-03-25T09:13:37;9.57;60.49
67586;SHT31;55785;47.946;20.540;2024-03-25T09:16:03;9.46;61.38
67586;SHT31;55785;47.946;20.540;2024-03-25T09:18:28;9.32;60.77
67586;SHT31;55785;47.946;20.540;2024-03-25T09:20:54;9.36;60.90
67586;SHT31;55785;47.946;20.540;2024-03-25T09:23:19;9.23;61.10
67586;SHT31;55785;47.946;20.540;2024-03-25T09:25:54;9.26;62.29
67586;SHT31;55785;47.946;20.540;2024-03-25T09:28:19;9.22;61.80
67586;SHT31;55785;47.946;20.540;2024-03-25T09:30:47;9.20;61.32
67586;SHT31;55785;47.946;20.540;2024-03-25T09:33:12;9.36;62.47
67586;SHT31;55785;47.946;20.540;2024-03-25T09:35:37;9.50;61.20
67586;SHT31;55785;47.946;20.540;2024-03-25T09:38:03;9.51;60.22
67586;SHT31;55785;47.946;20.540;2024-03-25T09:40:28;9.32;60.49
67586;SHT31;55785;47.946;20.540;2024-03-25T09:42:56;9.43;61.39
67586;SHT31;55785;47.946;20.540;2024-03-25T09:45:24;9.37;60.27
67586;SHT31;55785;47.946;20.540;2024-03-25T09:47:51;9.34;60.94
67586;SHT31;55785;47.946;20.540;2024-03-25T09:50:16;9.47;59.89
67586;SHT31;55785;47.946;20.540;2024-03-25T09:52:41;9.40;58.77
67586;SHT31;55785;47.946;20.540;2024-03-25T09:55:07;9.47;60.45
67586;SHT31;55785;47.946;20.540;2024-03-25T09:57:33;9.40;60.64
67586;SHT31;55785;47.946;20.540;2024-03-25T09:59:59;9.48;61.02
67586;SHT31;55785;47.946;20.540;2024-03-25T10:02:25;9.44;59.96
67586;SHT31;55785;47.946;20.540;2024-03-25T10:04:51;9.34;59.53
67586;SHT31;55785;47.946;20.540;2024-03-25T10:07:22;9.40;59.33
67586;SHT31;55785;47.946;20.540;2024-03-25T10:09:49;9.50;59.25
67586;SHT31;55785;47.946;20.540;2024-03-25T10:12:14;9.82;58.37
67586;SHT31;55785;47.946;20.540;2024-03-25T10:14:40;9.77;56.43
67586;SHT31;55785;47.946;20.540;2024-03-25T10:17:06;9.73;57.85
67586;SHT31;55785;47.946;20.540;2024-03-25T10:19:31;10.02;58.61
67586;SHT31;55785;47.946;20.540;2024-03-25T10:22:08;9.97;57.23
67586;SHT31;55785;47.946;20.540;2024-03-25T10:24:38;9.78;55.86
67586;SHT31;55785;47.946;20.540;2024-03-25T10:27:04;9.74;56.67
67586;SHT31;55785;47.946;20.540;2024-03-25T10:29:30;9.70;56.24
67586;SHT31;55785;47.946;20.540;2024-03-25T10:31:59;9.67;56.35
67586;SHT31;55785;47.946;20.540;2024-03-25T10:34:25;9.69;56.92
67586;SHT31;55785;47.946;20.540;2024-03-25T10:36:50;9.80;56.61
67586;SHT31;55785;47.946;20.540;2024-03-25T10:39:17;10.15;55.63
67586;SHT31;55785;47.946;20.540;2024-03-25T10:41:43;10.19;56.86
67586;SHT31;55785;47.946;20.540;2024-03-25T10:44:09;10.23;55.56
67586;SHT31;55785;47.946;20.540;2024-03-25T10:46:35;10.18;55.50
67586;SHT31;55785;47.946;20.540;2024-03-25T10:49:21;10.05;54.78
67586;SHT31;55785;47.946;20.540;2024-03-25T10:51:50;10.19;56.61
67586;SHT31;55785;47.946;20.540;2024-03-25T10:54:16;10.16;54.11
67586;SHT31;55785;47.946;20.540;2024-03-25T10:56:42;10.16;57.22
67586;SHT31;55785;47.946;20.540;2024-03-25T10:59:10;10.22;56.68
67586;SHT31;55785;47.946;20.540;2024-03-25T11:01:36;10.18;56.42
67586;SHT31;55785;47.946;20.540;2024-03-25T11:04:02;10.01;56.22
67586;SHT31;55785;47.946;20.540;2024-03-25T11:06:27;10.29;55.86
67586;SHT31;55785;47.946;20.540;2024-03-25T11:08:56;10.69;55.03
67586;SHT31;55785;47.946;20.540;2024-03-25T11:11:22;10.84;55.01
67586;SHT31;55785;47.946;20.540;2024-03-25T11:13:47;11.35;53.20
67586;SHT31;55785;47.946;20.540;2024-03-25T11:16:13;11.73;53.41
67586;SHT31;55785;47.946;20.540;2024-03-25T11:18:38;11.94;49.88
67586;SHT31;55785;47.946;20.540;2024-03-25T11:21:07;11.46;51.03
67586;SHT31;55785;47.946;20.540;2024-03-25T11:23:41;11.90;52.44
67586;SHT31;55785;47.946;20.540;2024-03-25T11:26:18;11.94;49.74
67586;SHT31;55785;47.946;20.540;2024-03-25T11:28:43;12.14;51.47
67586;SHT31;55785;47.946;20.540;2024-03-25T11:31:09;12.41;50.10
67586;SHT31;55785;47.946;20.540;2024-03-25T11:33:38;12.34;49.52
67586;SHT31;55785;47.946;20.540;2024-03-25T11:36:04;12.35;52.46
67586;SHT31;55785;47.946;20.540;2024-03-25T11:38:29;12.33;52.84
67586;SHT31;55785;47.946;20.540;2024-03-25T11:40:54;12.31;47.16
67586;SHT31;55785;47.946;20.540;2024-03-25T11:43:22;12.27;45.41
67586;SHT31;55785;47.946;20.540;2024-03-25T11:45:47;12.42;45.74
67586;SHT31;55785;47.946;20.540;2024-03-25T11:48:16;12.37;43.68
67586;SHT31;55785;47.946;20.540;2024-03-25T11:50:45;12.54;43.62
67586;SHT31;55785;47.946;20.540;2024-03-25T11:53:10;12.72;44.39
67586;SHT31;55785;47.946;20.540;2024-03-25T11:55:36;12.85;44.86
67586;SHT31;55785;47.946;20.540;2024-03-25T11:58:01;12.56;44.16
67586;SHT31;55785;47.946;20.540;2024-03-25T12:00:26;12.35;45.58
67586;SHT31;55785;47.946;20.540;2024-03-25T12:02:52;12.31;45.66
67586;SHT31;55785;47.946;20.540;2024-03-25T12:05:18;12.45;46.66
67586;SHT31;55785;47.946;20.540;2024-03-25T12:07:43;12.33;45.19
67586;SHT31;55785;47.946;20.540;2024-03-25T12:10:09;12.18;45.46
67586;SHT31;55785;47.946;20.540;2024-03-25T12:12:34;12.31;45.29
67586;SHT31;55785;47.946;20.540;2024-03-25T12:14:59;12.71;45.58
67586;SHT31;55785;47.946;20.540;2024-03-25T12:17:25;12.88;44.46
67586;SHT31;55785;47.946;20.540;2024-03-25T12:20:05;13.09;43.53
67586;SHT31;55785;47.946;20.540;2024-03-25T12:22:31;12.78;43.57
67586;SHT31;55785;47.946;20.540;2024-03-25T12:24:58;12.55;44.20
67586;SHT31;55785;47.946;20.540;2024-03-25T12:27:23;12.83;45.40
67586;SHT31;55785;47.946;20.540;2024-03-25T12:30:09;13.00;45.06
67586;SHT31;55785;47.946;20.540;2024-03-25T12:32:42;12.75;45.22
67586;SHT31;55785;47.946;20.540;2024-03-25T12:35:12;12.72;44.78
67586;SHT31;55785;47.946;20.540;2024-03-25T12:37:39;12.54;46.31
67586;SHT31;55785;47.946;20.540;2024-03-25T12:40:06;12.10;46.57
67586;SHT31;55785;47.946;20.540;2024-03-25T12:42:32;12.03;47.92
67586;SHT31;55785;47.946;20.540;2024-03-25T12:44:57;11.86;48.27
67586;SHT31;55785;47.946;20.540;2024-03-25T12:47:23;11.48;48.93
67586;SHT31;55785;47.946;20.540;2024-03-25T12:49:48;11.42;49.75
67586;SHT31;55785;47.946;20.540;2024-03-25T12:52:13;11.21;49.80
67586;SHT31;55785;47.946;20.540;2024-03-25T12:54:39;11.15;51.87
67586;SHT31;55785;47.946;20.540;2024-03-25T12:57:04;10.94;53.71
67586;SHT31;55785;47.946;20.540;2024-03-25T12:59:30;10.63;54.75
67586;SHT31;55785;47.946;20.540;2024-03-25T13:01:55;10.28;56.06
67586;SHT31;55785;47.946;20.540;2024-03-25T13:04:21;10.11;56.58
67586;SHT31;55785;47.946;20.540;2024-03-25T13:06:46;10.43;56.96
67586;SHT31;55785;47.946;20.540;2024-03-25T13:09:12;10.80;54.96
67586;SHT31;55785;47.946;20.540;2024-03-25T13:11:37;11.21;54.68
67586;SHT31;55785;47.946;20.540;2024-03-25T13:14:04;11.49;54.40
67586;SHT31;55785;47.946;20.540;2024-03-25T13:16:29;11.58;52.19
67586;SHT31;55785;47.946;20.540;2024-03-25T13:18:54;11.70;52.04
67586;SHT31;55785;47.946;20.540;2024-03-25T13:21:20;11.59;50.06
67586;SHT31;55785;47.946;20.540;2024-03-25T13:23:45;11.75;50.62
67586;SHT31;55785;47.946;20.540;2024-03-25T13:26:10;12.08;48.02
67586;SHT31;55785;47.946;20.540;2024-03-25T13:28:36;12.18;47.53
67586;SHT31;55785;47.946;20.540;2024-03-25T13:31:01;12.13;48.26
67586;SHT31;55785;47.946;20.540;2024-03-25T13:33:26;12.13;46.91
67586;SHT31;55785;47.946;20.540;2024-03-25T13:35:52;12.31;47.28
67586;SHT31;55785;47.946;20.540;2024-03-25T13:38:17;12.30;46.84
67586;SHT31;55785;47.946;20.540;2024-03-25T13:40:42;12.51;47.51
67586;SHT31;55785;47.946;20.540;2024-03-25T13:43:08;12.54;47.44
67586;SHT31;55785;47.946;20.540;2024-03-25T13:45:33;12.27;47.04
67586;SHT31;55785;47.946;20.540;2024-03-25T13:47:59;12.08;48.29
67586;SHT31;55785;47.946;20.540;2024-03-25T13:50:24;12.06;48.86
67586;SHT31;55785;47.946;20.540;2024-03-25T13:52:49;12.23;48.94
67586;SHT31;55785;47.946;20.540;2024-03-25T13:55:15;12.35;48.68
67586;SHT31;55785;47.946;20.540;2024-03-25T13:57:40;12.42;48.72
67586;SHT31;55785;47.946;20.540;2024-03-25T14:00:06;12.52;49.84
67586;SHT31;55785;47.946;20.540;2024-03-25T14:02:31;12.56;48.13
67586;SHT31;55785;47.946;20.540;2024-03-25T14:04:57;12.58;47.71
67586;SHT31;55785;47.946;20.540;2024-03-25T14:07:22;12.66;48.35
67586;SHT31;55785;47.946;20.540;2024-03-25T14:09:47;12.71;48.76
67586;SHT31;55785;47.946;20.540;2024-03-25T14:12:13;12.62;48.65
67586;SHT31;55785;47.946;20.540;2024-03-25T14:14:38;12.52;48.81
67586;SHT31;55785;47.946;20.540;2024-03-25T14:17:04;12.40;48.51
67586;SHT31;55785;47.946;20.540;2024-03-25T14:19:29;12.46;48.19
67586;SHT31;55785;47.946;20.540;2024-03-25T14:21:54;12.56;48.24
67586;SHT31;55785;47.946;20.540;2024-03-25T14:24:20;12.49;48.08
67586;SHT31;55785;47.946;20.540;2024-03-25T14:26:45;12.58;48.37
67586;SHT31;55785;47.946;20.540;2024-03-25T14:29:10;12.54;49.03
67586;SHT31;55785;47.946;20.540;2024-03-25T14:31:36;12.64;49.22
67586;SHT31;55785;47.946;20.540;2024-03-25T14:34:01;12.55;48.70
67586;SHT31;55785;47.946;20.540;2024-03-25T14:36:26;12.40;48.29
67586;SHT31;55785;47.946;20.540;2024-03-25T14:38:52;12.34;48.90
67586;SHT31;55785;47.946;20.540;2024-03-25T14:41:21;12.31;50.50
67586;SHT31;55785;47.946;20.540;2024-03-25T14:43:47;12.37;50.87
67586;SHT31;55785;47.946;20.540;2024-03-25T14:46:12;12.06;49.82
67586;SHT31;55785;47.946;20.540;2024-03-25T14:48:37;11.66;50.33
67586;SHT31;55785;47.946;20.540;2024-03-25T14:51:03;11.28;52.07
67586;SHT31;55785;47.946;20.540;2024-03-25T14:53:28;11.08;52.49
67586;SHT31;55785;47.946;20.540;2024-03-25T14:55:54;10.98;52.99
67586;SHT31;55785;47.946;20.540;2024-03-25T14:58:19;10.80;53.48
67586;SHT31;55785;47.946;20.540;2024-03-25T15:00:44;10.64;54.49
67586;SHT31;55785;47.946;20.540;2024-03-25T15:03:10;10.69;54.30
67586;SHT31;55785;47.946;20.540;2024-03-25T15:05:35;10.61;53.65
67586;SHT31;55785;47.946;20.540;2024-03-25T15:08:01;10.59;53.73
67586;SHT31;55785;47.946;20.540;2024-03-25T15:10:26;10.52;53.85
67586;SHT31;55785;47.946;20.540;2024-03-25T15:12:52;10.49;53.83
67586;SHT31;55785;47.946;20.540;2024-03-25T15:15:17;10.46;53.50
67586;SHT31;55785;47.946;20.540;2024-03-25T15:17:43;10.32;56.74